This is the latest recevied weather packets stored in our database for station/object LRFT. If no packets are shown the sender has not sent any weather packets the latest 1 day(s).
| Time | Temp. | Humidity | Pressure | Rain* | Wind** | Luminosity | Snow |
|---|---|---|---|---|---|---|---|
| 1778096956 | 11.11° C | 94% | 1016 hPa | - | - | - | - |
| 1778094240 | 11.11° C | 94% | 1016 hPa | - | - | - | - |
| 1778093342 | 12.78° C | 82% | 1015 hPa | - | - | - | - |
| 1778092440 | 12.78° C | 82% | 1015 hPa | - | - | - | - |
| 1778086140 | 20° C | 49% | 1015 hPa | - | - | - | - |
| 1778084340 | 20° C | 49% | 1015 hPa | - | - | - | - |
| 1778078940 | 22.22° C | 44% | 1015 hPa | - | - | - | - |
| 1778074440 | 21.11° C | 43% | 1015 hPa | - | - | - | - |
| 1778068140 | 21.11° C | 50% | 1016 hPa | - | - | - | - |
| 1778064540 | 21.11° C | 43% | 1017 hPa | - | - | - | - |
| 1778063640 | 21.11° C | 43% | 1017 hPa | - | - | - | - |
| 1778062740 | 21.11° C | 43% | 1017 hPa | - | - | - | - |
| 1778061840 | 21.11° C | 43% | 1017 hPa | - | - | - | - |
| 1778060940 | 20° C | 43% | 1016 hPa | - | - | - | - |
| 1778059140 | 20° C | 43% | 1016 hPa | - | - | - | - |
| 1778057340 | 18.89° C | 46% | 1016 hPa | - | - | - | - |
| 1778055536 | 18.89° C | 46% | 1016 hPa | - | - | - | - |
| 1778054640 | 18.89° C | 46% | 1016 hPa | - | - | - | - |
| 1778052840 | 17.22° C | 49% | 1016 hPa | - | - | - | - |
| 1778051939 | 17.22° C | 49% | 1016 hPa | - | - | - | - |
| 1778050140 | 15° C | 55% | 1016 hPa | - | - | - | - |
| 1778048340 | 15° C | 55% | 1016 hPa | - | - | - | - |
| 1778047441 | 15° C | 55% | 1016 hPa | - | - | - | - |
| 1778046541 | 10° C | 71% | 1015 hPa | - | - | - | - |
| 1778045648 | 10° C | 71% | 1015 hPa | - | - | - | - |
* Rain since midnight (hover to see other rain measurements)
** Current wind speed in m/s (hover to see current wind gust speed)